Latest Weather Observations for Samuel Hill

IDQ60801

Issued at 9:35 pm EST Wednesday 23 July 2014 (issued every 30 minutes, with the page automatically refreshed every 10 minutes)

About weather observations | Map of weather stations | Latest weather observations for QLD | Other Formats
Station Details ID: 033308 Name: SAMUEL HILL AERO Lat: -22.74 Lon: 150.66 Height: 31.0 m
Data from the previous 72 hours. | See also: Recent months at Samuel Hill
Date/Time
EST
Temp
°C
App
Temp
°C
Dew
Point
Rel
Hum
%
Delta-T
°C
Wind Press
QNH
hPa
Press
MSL
hPa
Rain
since 9 am
mm
Dir
 
Spd
km/h
Gust
km/h
Spd
kts
Gust
kts
23/09:30pm 11.1 10.4 10.0 93 0.6 W 4 6 2 3 1020.0 - 0.2
23/09:00pm 10.9 10.8 9.5 91 0.7 W 0 0 0 0 1019.9 1019.9 0.2
23/08:30pm 11.3 11.3 9.7 90 0.8 CALM 0 0 0 0 1019.8 - 0.2
23/08:00pm 12.4 12.3 10.8 90 0.8 S 2 7 1 4 1019.7 - 0.2
23/07:30pm 13.4 12.8 11.8 90 0.9 SSE 6 9 3 5 1019.5 - 0.2
23/07:00pm 14.4 13.8 12.4 88 1.1 SSE 7 9 4 5 1019.5 - 0.2
23/06:30pm 15.1 14.4 12.1 82 1.6 S 7 9 4 5 1019.3 - 0.2
23/06:00pm 16.6 16.3 12.8 78 2.1 ESE 6 7 3 4 1018.9 1018.9 0.2
23/05:30pm 17.8 16.6 12.9 73 2.7 ESE 11 15 6 8 1018.6 - 0.2
23/05:00pm 19.0 16.9 12.5 66 3.6 ESE 15 22 8 12 1018.4 - 0.2
23/04:30pm 19.8 17.8 11.6 59 4.5 SE 13 19 7 10 1018.2 - 0.2
23/04:00pm 20.3 17.3 11.8 58 4.7 ESE 19 24 10 13 1018.1 - 0.2
23/03:30pm 20.8 18.4 12.5 59 4.7 SE 17 26 9 14 1018.3 - 0.2
23/03:00pm 21.2 19.2 12.6 58 4.9 ESE 15 26 8 14 1018.1 1018.1 0.2
23/02:30pm 21.8 19.6 13.4 59 4.8 ESE 17 26 9 14 1018.2 - 0.2
23/02:00pm 21.4 19.2 13.3 60 4.7 SE 17 26 9 14 1018.2 - 0.2
23/01:30pm 21.8 19.7 13.7 60 4.7 SE 17 30 9 16 1018.4 - 0.2
23/01:00pm 21.3 19.3 14.0 63 4.2 SE 17 24 9 13 1018.6 - 0.2
23/12:30pm 20.2 19.3 14.8 71 3.2 ESE 13 22 7 12 1019.0 - 0.2
23/12:00pm 20.2 17.8 14.3 69 3.4 SSE 20 26 11 14 1019.7 1019.7 0.0
23/11:30am 20.1 18.8 14.7 71 3.2 SSE 15 22 8 12 1020.5 - 0.0
23/11:00am 19.9 18.6 14.9 73 2.9 SE 15 24 8 13 1020.6 - 0.0
23/10:41am 19.4 17.6 14.4 73 2.9 SE 17 32 9 17 1020.7 - 0.0
23/10:30am 19.3 17.9 14.6 74 2.7 SSE 15 24 8 13 1020.8 - 0.0
23/10:02am 19.6 18.8 15.0 75 2.7 SSE 13 24 7 13 1021.2 - 0.0
23/10:00am 19.8 18.7 15.4 76 2.6 SSE 15 24 8 13 1021.2 - 0.0
23/09:30am 18.9 17.8 15.2 79 2.2 SSE 15 30 8 16 1021.4 - 0.0
23/09:00am 17.8 16.2 14.9 83 1.7 SSE 17 26 9 14 1021.4 1021.4 0.0
23/08:30am 17.1 16.9 15.6 91 0.9 SSE 11 15 6 8 1021.1 - 0.0
23/08:08am 15.9 16.8 15.1 95 0.5 SSE 4 7 2 4 1020.7 - 0.0
23/08:00am 15.1 16.5 14.5 96 0.3 CALM 0 6 0 3 1020.7 - 0.0
23/07:30am 12.1 12.5 11.3 95 0.4 CALM 0 0 0 0 1020.3 - 0.0
23/07:16am 10.8 10.9 10.0 95 0.4 CALM 0 0 0 0 1020.1 - 0.0
23/07:00am 11.4 11.3 10.8 96 0.3 S 2 7 1 4 1019.8 - 0.0
23/06:51am 11.5 11.0 10.9 96 0.3 S 4 7 2 4 1019.7 - 0.0
23/06:47am 11.8 11.8 11.2 96 0.3 S 2 7 1 4 1019.6 - 0.0
23/06:31am 11.4 11.6 10.6 95 0.4 CALM 0 0 0 0 1019.6 - 0.0
23/06:30am 11.2 11.4 10.4 95 0.4 CALM 0 0 0 0 1019.6 - 0.0
23/06:17am 12.7 13.4 12.1 96 0.3 CALM 0 6 0 3 1019.4 - 0.0
23/06:01am 13.0 13.4 12.5 97 0.3 S 2 6 1 3 1019.3 - 0.0
23/06:00am 13.1 13.5 12.6 97 0.3 S 2 7 1 4 1019.4 1019.4 0.0
23/05:53am 13.4 13.0 12.9 97 0.3 S 7 9 4 5 1019.3 - 0.0
23/05:30am 13.0 13.0 12.5 97 0.3 S 4 9 2 5 1019.0 - 0.0
23/05:00am 11.6 10.8 11.1 97 0.3 SW 6 9 3 5 1018.7 - 0.0
23/04:30am 11.9 11.0 11.4 97 0.3 WSW 7 9 4 5 1018.5 - 0.0
23/04:00am 11.4 11.7 10.9 97 0.3 CALM 0 7 0 4 1018.3 - 0.0
23/03:30am 10.9 10.7 10.4 97 0.3 SW 2 7 1 4 1018.3 - 0.0
23/03:00am 10.2 10.1 9.6 96 0.3 CALM 0 0 0 0 1018.4 1018.4 0.0
23/02:30am 9.4 9.1 8.6 95 0.4 CALM 0 0 0 0 1018.5 - 0.0
23/02:15am 8.9 8.4 8.0 94 0.4 CALM 0 0 0 0 1018.6 - 0.0
23/02:05am 8.6 8.0 7.5 93 0.5 CALM 0 0 0 0 1018.6 - 0.0
23/02:00am 8.4 7.8 7.3 93 0.5 CALM 0 0 0 0 1018.6 - 0.0
23/01:30am 8.8 8.3 7.7 93 0.5 CALM 0 0 0 0 1018.9 - 0.0
23/01:00am 8.8 8.3 7.7 93 0.5 CALM 0 0 0 0 1019.2 - 0.0
23/12:30am 9.4 9.0 8.3 93 0.5 CALM 0 0 0 0 1019.2 - 0.0
23/12:00am 9.1 8.6 8.0 93 0.5 SSE 0 0 0 0 1019.2 1019.2 0.0
 
Date/Time
EST
Temp
°C
App
Temp
°C
Dew
Point
Rel
Hum
%
Delta-T
°C
Wind Press
QNH
hPa
Press
MSL
hPa
Rain
since 9 am
mm
Dir
 
Spd
km/h
Gust
km/h
Spd
kts
Gust
kts
22/11:30pm 9.4 9.0 8.2 92 0.6 CALM 0 0 0 0 1019.3 - 0.0
22/11:00pm 9.8 9.5 8.7 93 0.5 CALM 0 0 0 0 1019.5 - 0.0
22/10:30pm 9.8 9.5 8.7 93 0.5 CALM 0 0 0 0 1019.7 - 0.0
22/10:00pm 9.8 9.5 8.6 92 0.6 CALM 0 0 0 0 1019.8 - 0.0
22/09:30pm 9.8 9.5 8.6 92 0.6 CALM 0 0 0 0 1019.8 - 0.0
22/09:00pm 10.1 8.7 8.9 92 0.6 SSE 6 7 3 4 1019.7 1019.7 0.0
22/08:30pm 10.7 10.5 9.1 90 0.8 CALM 0 0 0 0 1019.5 - 0.0
22/08:00pm 11.1 11.0 9.4 89 0.9 CALM 0 0 0 0 1019.3 - 0.0
22/07:30pm 11.6 11.5 9.5 87 1.1 CALM 0 0 0 0 1019.1 - 0.0
22/07:00pm 13.1 13.3 10.6 85 1.3 CALM 0 0 0 0 1018.8 - 0.0
22/06:30pm 13.9 14.1 10.7 81 1.7 CALM 0 0 0 0 1018.5 - 0.0
22/06:00pm 15.7 16.4 12.3 80 1.9 CALM 0 0 0 0 1018.1 1018.1 0.0
22/05:30pm 17.7 17.2 12.6 72 2.8 ESE 7 9 4 5 1017.8 - 0.0
22/05:00pm 19.3 18.4 12.6 65 3.8 ESE 9 13 5 7 1017.6 - 0.0
22/04:30pm 20.1 18.4 12.3 61 4.4 ESE 13 17 7 9 1017.3 - 0.0
22/04:00pm 20.9 19.2 12.6 59 4.7 SE 13 20 7 11 1017.2 - 0.0
22/03:30pm 21.2 18.4 11.5 54 5.4 ESE 17 20 9 11 1017.2 - 0.0
22/03:00pm 21.9 19.8 11.3 51 5.9 SE 13 19 7 10 1017.0 1016.9 0.0
22/02:30pm 21.8 19.3 10.9 50 6.0 ESE 15 22 8 12 1017.1 - 0.0
22/02:00pm 21.7 18.9 11.4 52 5.7 ESE 17 24 9 13 1017.4 - 0.0
22/01:30pm 22.0 19.8 10.8 49 6.2 SSE 13 20 7 11 1017.8 - 0.0
22/01:00pm 22.1 19.9 12.1 53 5.6 SE 15 20 8 11 1018.1 - 0.0
22/12:30pm 22.1 20.5 12.9 56 5.3 SE 13 22 7 12 1018.7 - 0.0
22/12:00pm 21.5 20.6 13.7 61 4.5 SE 11 17 6 9 1019.4 1019.4 0.0
22/11:30am 21.7 20.5 13.9 61 4.5 SSE 13 20 7 11 1020.0 - 0.0
22/11:00am 20.4 18.5 12.9 62 4.3 SE 15 20 8 11 1020.6 - 0.0
22/10:30am 20.2 19.4 14.1 68 3.5 SSE 11 17 6 9 1021.0 - 0.0
22/10:00am 19.5 18.7 14.1 71 3.1 S 11 20 6 11 1021.2 - 0.0
22/09:30am 18.4 18.1 14.3 77 2.4 SSE 9 17 5 9 1021.4 - 0.0
22/09:00am 16.4 17.1 13.3 82 1.7 ESE 2 9 1 5 1021.4 1021.4 0.0
22/08:30am 13.6 12.9 11.5 87 1.1 SE 6 7 3 4 1021.4 - 0.0
22/08:00am 10.7 10.6 9.6 93 0.6 CALM 0 0 0 0 1021.2 - 0.0
22/07:30am 7.7 6.9 6.6 93 0.5 CALM 0 0 0 0 1021.0 - 0.0
22/07:00am 5.8 4.7 5.1 95 0.3 CALM 0 0 0 0 1020.7 - 0.0
22/06:30am 4.8 3.5 4.1 95 0.3 CALM 0 0 0 0 1020.4 - 0.0
22/06:00am 5.1 3.9 4.4 95 0.3 CALM 0 0 0 0 1020.2 1020.2 0.0
22/05:30am 5.0 3.7 4.1 94 0.4 CALM 0 0 0 0 1019.9 - 0.0
22/05:00am 5.5 4.3 4.8 95 0.3 CALM 0 0 0 0 1019.7 - 0.0
22/04:30am 5.2 3.9 4.3 94 0.4 CALM 0 0 0 0 1019.5 - 0.0
22/04:00am 5.3 4.1 4.6 95 0.3 CALM 0 0 0 0 1019.4 - 0.0
22/03:30am 5.4 4.2 4.5 94 0.4 CALM 0 0 0 0 1019.4 - 0.0
22/03:00am 5.7 4.6 5.0 95 0.3 CALM 0 0 0 0 1019.6 1019.6 0.0
22/02:30am 5.6 4.4 4.7 94 0.4 CALM 0 0 0 0 1019.8 - 0.0
22/02:00am 5.8 4.7 4.9 94 0.4 CALM 0 0 0 0 1019.9 - 0.0
22/01:30am 6.0 4.9 5.1 94 0.4 CALM 0 0 0 0 1020.1 - 0.0
22/01:00am 6.2 5.1 5.3 94 0.4 CALM 0 0 0 0 1020.3 - 0.0
22/12:30am 6.3 5.2 5.3 93 0.4 CALM 0 0 0 0 1020.4 - 0.0
22/12:00am 6.4 5.4 5.5 94 0.4 CALM 0 0 0 0 1020.5 1020.5 0.0
 
Date/Time
EST
Temp
°C
App
Temp
°C
Dew
Point
Rel
Hum
%
Delta-T
°C
Wind Press
QNH
hPa
Press
MSL
hPa
Rain
since 9 am
mm
Dir
 
Spd
km/h
Gust
km/h
Spd
kts
Gust
kts
21/11:30pm 6.8 5.9 5.9 94 0.4 CALM 0 0 0 0 1020.7 - 0.0
21/11:00pm 7.1 6.2 6.0 93 0.5 CALM 0 0 0 0 1021.0 - 0.0
21/10:30pm 6.9 5.9 5.7 92 0.5 CALM 0 0 0 0 1021.0 - 0.0
21/10:00pm 7.9 7.2 7.0 94 0.4 CALM 0 0 0 0 1021.2 - 0.0
21/09:30pm 8.2 7.6 7.3 94 0.4 CALM 0 0 0 0 1021.2 - 0.0
21/09:00pm 7.8 7.0 6.4 91 0.6 CALM 0 0 0 0 1021.0 1021.0 0.0
21/08:30pm 8.3 7.6 6.8 90 0.7 CALM 0 0 0 0 1021.1 - 0.0
21/08:00pm 9.8 8.7 8.6 92 0.6 WNW 4 7 2 4 1020.7 - 0.0
21/07:30pm 9.4 7.8 7.8 90 0.8 NNE 6 9 3 5 1020.6 - 0.0
21/07:00pm 10.9 10.5 8.3 84 1.3 CALM 0 0 0 0 1020.3 - 0.0
21/06:30pm 12.5 12.4 9.5 82 1.5 CALM 0 0 0 0 1020.2 - 0.0
21/06:00pm 13.9 12.6 9.1 73 2.4 SE 6 7 3 4 1019.8 1019.8 0.0
21/05:30pm 16.9 15.7 9.6 62 3.8 ESE 6 9 3 5 1019.6 - 0.0
21/05:00pm 18.4 16.1 8.9 54 5.0 ESE 11 17 6 9 1019.3 - 0.0
21/04:30pm 19.5 16.4 7.3 45 6.2 ESE 13 19 7 10 1019.0 - 0.0
21/04:00pm 20.4 17.3 7.1 42 6.8 ESE 13 19 7 10 1018.8 - 0.0
21/03:30pm 20.4 16.7 6.4 40 7.0 ESE 15 20 8 11 1018.6 - 0.0
21/03:00pm 20.8 17.0 5.6 37 7.5 SE 15 20 8 11 1018.6 1018.6 0.0
21/02:30pm 20.8 16.8 4.8 35 7.8 SE 15 24 8 13 1018.7 - 0.0
21/02:00pm 21.3 17.2 4.4 33 8.2 ESE 15 20 8 11 1018.7 - 0.0
21/01:30pm 21.5 17.2 3.2 30 8.7 ESE 15 24 8 13 1018.9 - 0.0
21/01:00pm 21.7 18.0 2.4 28 9.1 ESE 11 19 6 10 1019.2 - 0.0
21/12:30pm 21.4 17.5 3.6 31 8.5 ESE 13 22 7 12 1019.7 - 0.0
21/12:00pm 21.4 17.9 3.6 31 8.5 SSE 11 19 6 10 1020.2 1020.2 0.0
21/11:30am 20.7 17.9 5.1 36 7.7 S 9 17 5 9 1020.8 - 0.0
21/11:00am 20.2 17.5 7.2 43 6.6 S 11 17 6 9 1021.1 - 0.0
21/10:30am 19.3 16.3 7.7 47 5.9 SE 13 17 7 9 1021.5 - 0.0
21/10:00am 18.1 16.2 8.9 55 4.8 SSE 9 15 5 8 1021.8 - 0.0
21/09:30am 16.2 15.1 10.1 67 3.2 SSE 6 9 3 5 1022.0 - 0.0
21/09:00am 13.4 12.6 8.0 70 2.7 S 2 7 1 4 1022.1 1022.1 0.0
21/08:30am 12.4 12.2 8.9 79 1.8 CALM 0 0 0 0 1022.0 - 0.0
21/08:00am 9.2 8.7 7.8 91 0.7 CALM 0 0 0 0 1021.8 - 0.0
21/07:30am 6.3 5.3 5.4 94 0.4 CALM 0 0 0 0 1021.6 - 0.0
21/07:00am 3.7 2.2 3.0 95 0.3 CALM 0 0 0 0 1021.4 - 0.0
21/06:30am 3.3 1.7 2.6 95 0.3 CALM 0 0 0 0 1021.0 - 0.0
21/06:00am 3.3 1.7 2.6 95 0.3 CALM 0 0 0 0 1020.6 1020.6 0.0
21/05:30am 3.5 2.0 2.8 95 0.3 CALM 0 0 0 0 1020.4 - 0.0
21/05:00am 3.8 2.3 2.9 94 0.4 CALM 0 0 0 0 1020.1 - 0.0
21/04:30am 3.7 2.2 2.8 94 0.4 CALM 0 0 0 0 1020.1 - 0.0
21/04:00am 3.9 2.4 3.0 94 0.4 CALM 0 0 0 0 1020.2 - 0.0
21/03:30am 4.3 2.9 3.6 95 0.3 CALM 0 0 0 0 1020.0 - 0.0
21/03:00am 4.2 2.8 3.3 94 0.4 CALM 0 0 0 0 1020.1 1020.1 0.0
21/02:30am 4.5 3.1 3.6 94 0.4 CALM 0 0 0 0 1020.5 - 0.0
21/02:00am 4.6 3.2 3.7 94 0.4 CALM 0 0 0 0 1020.7 - 0.0
21/01:30am 4.6 3.2 3.7 94 0.4 CALM 0 0 0 0 1020.9 - 0.0
21/01:00am 5.2 3.9 4.3 94 0.4 CALM 0 0 0 0 1020.9 - 0.0
21/12:30am 5.0 3.7 4.1 94 0.4 CALM 0 0 0 0 1021.1 - 0.0
21/12:00am 5.6 4.4 4.7 94 0.4 CALM 0 0 0 0 1021.1 1021.1 0.0
 
Date/Time
EST
Temp
°C
App
Temp
°C
Dew
Point
Rel
Hum
%
Delta-T
°C
Wind Press
QNH
hPa
Press
MSL
hPa
Rain
since 9 am
mm
Dir
 
Spd
km/h
Gust
km/h
Spd
kts
Gust
kts
20/11:30pm 5.7 4.5 4.8 94 0.4 CALM 0 0 0 0 1021.2 - 0.0
20/11:00pm 5.7 4.5 4.8 94 0.4 CALM 0 0 0 0 1021.3 - 0.0
20/10:30pm 6.2 5.1 5.3 94 0.4 CALM 0 6 0 3 1021.3 - 0.0
20/10:00pm 6.2 5.1 5.2 93 0.4 CALM 0 0 0 0 1021.6 - 0.0

Other Formats:

Comma delimited format used in spreadsheet applications
http://www.bom.gov.au/fwo/IDQ60801/IDQ60801.94370.axf

JavaScript Object Notation format (JSON) in row-major order
http://www.bom.gov.au/fwo/IDQ60801/IDQ60801.94370.json